sensor_id;sensor_type;location;lat;lon;timestamp;temperature;humidity
1546;DHT22;766;51.502;9.752;2022-08-14T00:02:24;20.00;99.90
1546;DHT22;766;51.502;9.752;2022-08-14T00:04:57;19.90;99.90
1546;DHT22;766;51.502;9.752;2022-08-14T00:07:25;19.90;99.90
1546;DHT22;766;51.502;9.752;2022-08-14T00:09:55;20.00;99.90
1546;DHT22;766;51.502;9.752;2022-08-14T00:12:46;20.00;99.90
1546;DHT22;766;51.502;9.752;2022-08-14T00:15:26;20.00;99.90
1546;DHT22;766;51.502;9.752;2022-08-14T00:18:05;19.90;99.90
1546;DHT22;766;51.502;9.752;2022-08-14T00:20:41;19.90;99.90
1546;DHT22;766;51.502;9.752;2022-08-14T00:23:15;19.90;99.90
1546;DHT22;766;51.502;9.752;2022-08-14T00:25:47;19.90;99.90
1546;DHT22;766;51.502;9.752;2022-08-14T00:28:32;19.90;99.90
1546;DHT22;766;51.502;9.752;2022-08-14T00:31:03;19.80;99.90
1546;DHT22;766;51.502;9.752;2022-08-14T00:33:33;19.70;99.90
1546;DHT22;766;51.502;9.752;2022-08-14T00:36:20;19.80;99.90
1546;DHT22;766;51.502;9.752;2022-08-14T00:39:12;19.80;99.90
1546;DHT22;766;51.502;9.752;2022-08-14T00:41:46;19.90;99.90
1546;DHT22;766;51.502;9.752;2022-08-14T00:44:14;19.90;99.90
1546;DHT22;766;51.502;9.752;2022-08-14T00:47:02;19.90;99.90
1546;DHT22;766;51.502;9.752;2022-08-14T00:49:36;19.90;99.90
1546;DHT22;766;51.502;9.752;2022-08-14T00:52:10;19.90;99.90
1546;DHT22;766;51.502;9.752;2022-08-14T00:54:41;19.80;99.90
1546;DHT22;766;51.502;9.752;2022-08-14T00:57:12;19.80;99.90
1546;DHT22;766;51.502;9.752;2022-08-14T00:59:43;19.70;99.90
1546;DHT22;766;51.502;9.752;2022-08-14T01:02:11;19.70;99.90
1546;DHT22;766;51.502;9.752;2022-08-14T01:04:46;19.60;99.90
1546;DHT22;766;51.502;9.752;2022-08-14T01:07:21;19.50;99.90
1546;DHT22;766;51.502;9.752;2022-08-14T01:09:53;19.50;99.90
1546;DHT22;766;51.502;9.752;2022-08-14T01:12:25;19.40;99.90
1546;DHT22;766;51.502;9.752;2022-08-14T01:14:56;19.40;99.90
1546;DHT22;766;51.502;9.752;2022-08-14T01:17:26;19.40;99.90
1546;DHT22;766;51.502;9.752;2022-08-14T01:20:18;19.40;99.90
1546;DHT22;766;51.502;9.752;2022-08-14T01:23:08;19.50;99.90
1546;DHT22;766;51.502;9.752;2022-08-14T01:25:45;19.50;99.90
1546;DHT22;766;51.502;9.752;2022-08-14T01:28:14;19.30;99.90
1546;DHT22;766;51.502;9.752;2022-08-14T01:31:04;19.30;99.90
1546;DHT22;766;51.502;9.752;2022-08-14T01:33:35;19.00;99.90
1546;DHT22;766;51.502;9.752;2022-08-14T01:36:30;19.10;99.90
1546;DHT22;766;51.502;9.752;2022-08-14T01:39:07;19.20;99.90
1546;DHT22;766;51.502;9.752;2022-08-14T01:41:40;19.40;99.90
1546;DHT22;766;51.502;9.752;2022-08-14T01:44:13;19.50;99.90
1546;DHT22;766;51.502;9.752;2022-08-14T01:47:07;19.50;99.90
1546;DHT22;766;51.502;9.752;2022-08-14T01:49:48;19.40;99.90
1546;DHT22;766;51.502;9.752;2022-08-14T01:52:30;19.50;99.90
1546;DHT22;766;51.502;9.752;2022-08-14T01:55:25;19.60;99.90
1546;DHT22;766;51.502;9.752;2022-08-14T01:57:58;19.60;99.90
1546;DHT22;766;51.502;9.752;2022-08-14T02:00:48;19.60;99.90
1546;DHT22;766;51.502;9.752;2022-08-14T02:03:22;19.50;99.90
1546;DHT22;766;51.502;9.752;2022-08-14T02:05:57;19.40;99.90
1546;DHT22;766;51.502;9.752;2022-08-14T02:08:45;19.40;99.90
1546;DHT22;766;51.502;9.752;2022-08-14T02:11:23;19.30;99.90
1546;DHT22;766;51.502;9.752;2022-08-14T02:13:54;19.40;99.90
1546;DHT22;766;51.502;9.752;2022-08-14T02:16:36;19.40;99.90
1546;DHT22;766;51.502;9.752;2022-08-14T02:19:08;19.30;99.90
1546;DHT22;766;51.502;9.752;2022-08-14T02:21:39;19.20;99.90
1546;DHT22;766;51.502;9.752;2022-08-14T02:24:16;19.20;99.90
1546;DHT22;766;51.502;9.752;2022-08-14T02:27:08;19.30;99.90
1546;DHT22;766;51.502;9.752;2022-08-14T02:29:57;19.20;99.90
1546;DHT22;766;51.502;9.752;2022-08-14T02:32:29;19.20;99.90
1546;DHT22;766;51.502;9.752;2022-08-14T02:35:05;19.20;99.90
1546;DHT22;766;51.502;9.752;2022-08-14T02:37:45;19.10;99.90
1546;DHT22;766;51.502;9.752;2022-08-14T02:40:16;19.00;99.90
1546;DHT22;766;51.502;9.752;2022-08-14T02:42:46;19.00;99.90
1546;DHT22;766;51.502;9.752;2022-08-14T02:45:24;18.90;99.90
1546;DHT22;766;51.502;9.752;2022-08-14T02:48:05;18.90;99.90
1546;DHT22;766;51.502;9.752;2022-08-14T02:50:54;18.80;99.90
1546;DHT22;766;51.502;9.752;2022-08-14T02:53:26;18.80;99.90
1546;DHT22;766;51.502;9.752;2022-08-14T02:55:55;18.80;99.90
1546;DHT22;766;51.502;9.752;2022-08-14T02:58:38;18.90;99.90
1546;DHT22;766;51.502;9.752;2022-08-14T03:01:09;18.80;99.90
1546;DHT22;766;51.502;9.752;2022-08-14T03:03:38;18.80;99.90
1546;DHT22;766;51.502;9.752;2022-08-14T03:06:10;18.80;99.90
1546;DHT22;766;51.502;9.752;2022-08-14T03:08:46;18.80;99.90
1546;DHT22;766;51.502;9.752;2022-08-14T03:11:15;18.70;99.90
1546;DHT22;766;51.502;9.752;2022-08-14T03:13:47;18.70;99.90
1546;DHT22;766;51.502;9.752;2022-08-14T03:16:19;18.60;99.90
1546;DHT22;766;51.502;9.752;2022-08-14T03:18:54;18.60;99.90
1546;DHT22;766;51.502;9.752;2022-08-14T03:21:25;18.60;99.90
1546;DHT22;766;51.502;9.752;2022-08-14T03:23:57;18.50;99.90
1546;DHT22;766;51.502;9.752;2022-08-14T03:26:47;18.50;99.90
1546;DHT22;766;51.502;9.752;2022-08-14T03:29:25;18.30;99.90
1546;DHT22;766;51.502;9.752;2022-08-14T03:31:55;18.30;99.90
1546;DHT22;766;51.502;9.752;2022-08-14T03:34:26;18.30;99.90
1546;DHT22;766;51.502;9.752;2022-08-14T03:37:14;18.30;99.90
1546;DHT22;766;51.502;9.752;2022-08-14T03:40:03;18.30;99.90
1546;DHT22;766;51.502;9.752;2022-08-14T03:42:37;18.30;99.90
1546;DHT22;766;51.502;9.752;2022-08-14T03:45:07;18.30;99.90
1546;DHT22;766;51.502;9.752;2022-08-14T03:47:55;18.30;99.90
1546;DHT22;766;51.502;9.752;2022-08-14T03:50:28;18.30;99.90
1546;DHT22;766;51.502;9.752;2022-08-14T03:52:59;18.30;99.90
1546;DHT22;766;51.502;9.752;2022-08-14T03:55:28;18.20;99.90
1546;DHT22;766;51.502;9.752;2022-08-14T03:57:56;18.10;99.90
1546;DHT22;766;51.502;9.752;2022-08-14T04:00:28;18.20;99.90
1546;DHT22;766;51.502;9.752;2022-08-14T04:03:11;18.20;99.90
1546;DHT22;766;51.502;9.752;2022-08-14T04:05:50;18.10;99.90
1546;DHT22;766;51.502;9.752;2022-08-14T04:08:19;18.10;99.90
1546;DHT22;766;51.502;9.752;2022-08-14T04:10:58;18.00;99.90
1546;DHT22;766;51.502;9.752;2022-08-14T04:13:29;17.90;99.90
1546;DHT22;766;51.502;9.752;2022-08-14T04:16:03;17.90;99.90
1546;DHT22;766;51.502;9.752;2022-08-14T04:18:39;18.00;99.90
1546;DHT22;766;51.502;9.752;2022-08-14T04:21:10;18.00;99.90
1546;DHT22;766;51.502;9.752;2022-08-14T04:23:41;18.10;99.90
1546;DHT22;766;51.502;9.752;2022-08-14T04:26:11;18.20;99.90
1546;DHT22;766;51.502;9.752;2022-08-14T04:29:00;18.30;99.90
1546;DHT22;766;51.502;9.752;2022-08-14T04:31:43;18.40;99.90
1546;DHT22;766;51.502;9.752;2022-08-14T04:34:33;18.40;99.90
1546;DHT22;766;51.502;9.752;2022-08-14T04:37:03;18.40;99.90
1546;DHT22;766;51.502;9.752;2022-08-14T04:39:52;18.30;99.90
1546;DHT22;766;51.502;9.752;2022-08-14T04:42:38;18.30;99.90
1546;DHT22;766;51.502;9.752;2022-08-14T04:45:28;18.40;99.90
1546;DHT22;766;51.502;9.752;2022-08-14T04:48:07;18.30;99.90
1546;DHT22;766;51.502;9.752;2022-08-14T04:51:01;18.40;99.90
1546;DHT22;766;51.502;9.752;2022-08-14T04:53:30;18.40;99.90
1546;DHT22;766;51.502;9.752;2022-08-14T04:56:02;18.40;99.90
1546;DHT22;766;51.502;9.752;2022-08-14T04:58:57;18.40;99.90
1546;DHT22;766;51.502;9.752;2022-08-14T05:01:28;18.40;99.90
1546;DHT22;766;51.502;9.752;2022-08-14T05:04:07;18.50;99.90
1546;DHT22;766;51.502;9.752;2022-08-14T05:06:47;18.70;99.90
1546;DHT22;766;51.502;9.752;2022-08-14T05:09:19;18.80;99.90
1546;DHT22;766;51.502;9.752;2022-08-14T05:11:48;18.90;99.90
1546;DHT22;766;51.502;9.752;2022-08-14T05:14:18;19.00;99.90
1546;DHT22;766;51.502;9.752;2022-08-14T05:17:08;19.00;99.90
1546;DHT22;766;51.502;9.752;2022-08-14T05:19:38;19.20;99.90
1546;DHT22;766;51.502;9.752;2022-08-14T05:22:28;19.20;99.90
1546;DHT22;766;51.502;9.752;2022-08-14T05:24:56;19.40;99.90
1546;DHT22;766;51.502;9.752;2022-08-14T05:27:25;19.50;99.90
1546;DHT22;766;51.502;9.752;2022-08-14T05:29:57;19.60;99.90
1546;DHT22;766;51.502;9.752;2022-08-14T05:32:25;19.80;99.90
1546;DHT22;766;51.502;9.752;2022-08-14T05:34:58;19.90;99.90
1546;DHT22;766;51.502;9.752;2022-08-14T05:37:27;19.80;99.90
1546;DHT22;766;51.502;9.752;2022-08-14T05:39:58;20.10;99.90
1546;DHT22;766;51.502;9.752;2022-08-14T05:42:27;20.20;99.90
1546;DHT22;766;51.502;9.752;2022-08-14T05:45:06;20.50;99.90
1546;DHT22;766;51.502;9.752;2022-08-14T05:47:40;20.50;99.90
1546;DHT22;766;51.502;9.752;2022-08-14T05:50:12;20.70;99.90
1546;DHT22;766;51.502;9.752;2022-08-14T05:52:46;20.90;99.90
1546;DHT22;766;51.502;9.752;2022-08-14T05:55:15;21.20;99.90
1546;DHT22;766;51.502;9.752;2022-08-14T05:57:50;21.30;99.90
1546;DHT22;766;51.502;9.752;2022-08-14T06:00:20;21.30;99.90
1546;DHT22;766;51.502;9.752;2022-08-14T06:02:55;21.10;99.90
1546;DHT22;766;51.502;9.752;2022-08-14T06:05:25;21.30;99.90
1546;DHT22;766;51.502;9.752;2022-08-14T06:07:56;21.40;99.90
1546;DHT22;766;51.502;9.752;2022-08-14T06:10:25;21.20;99.90
1546;DHT22;766;51.502;9.752;2022-08-14T06:12:55;21.80;99.90
1546;DHT22;766;51.502;9.752;2022-08-14T06:15:24;22.30;99.90
1546;DHT22;766;51.502;9.752;2022-08-14T06:17:56;22.20;99.90
1546;DHT22;766;51.502;9.752;2022-08-14T06:20:28;21.70;99.90
1546;DHT22;766;51.502;9.752;2022-08-14T06:23:00;22.10;99.90
1546;DHT22;766;51.502;9.752;2022-08-14T06:25:29;22.50;99.90
1546;DHT22;766;51.502;9.752;2022-08-14T06:27:59;22.50;99.90
1546;DHT22;766;51.502;9.752;2022-08-14T06:30:32;21.80;99.90
1546;DHT22;766;51.502;9.752;2022-08-14T06:33:14;22.20;99.90
1546;DHT22;766;51.502;9.752;2022-08-14T06:35:46;21.80;99.90
1546;DHT22;766;51.502;9.752;2022-08-14T06:38:19;22.50;99.90
1546;DHT22;766;51.502;9.752;2022-08-14T06:40:50;22.90;99.90
1546;DHT22;766;51.502;9.752;2022-08-14T06:43:19;23.10;99.90
1546;DHT22;766;51.502;9.752;2022-08-14T06:45:55;22.90;99.90
1546;DHT22;766;51.502;9.752;2022-08-14T06:48:26;23.40;99.90
1546;DHT22;766;51.502;9.752;2022-08-14T06:50:59;23.40;99.90
1546;DHT22;766;51.502;9.752;2022-08-14T06:53:29;23.80;99.90
1546;DHT22;766;51.502;9.752;2022-08-14T06:55:58;24.60;99.90
1546;DHT22;766;51.502;9.752;2022-08-14T06:58:28;24.90;99.90
1546;DHT22;766;51.502;9.752;2022-08-14T07:00:58;25.00;99.90
1546;DHT22;766;51.502;9.752;2022-08-14T07:03:53;25.00;99.90
1546;DHT22;766;51.502;9.752;2022-08-14T07:06:52;25.40;99.90
1546;DHT22;766;51.502;9.752;2022-08-14T07:09:26;25.20;99.90
1546;DHT22;766;51.502;9.752;2022-08-14T07:12:14;25.40;99.90
1546;DHT22;766;51.502;9.752;2022-08-14T07:15:03;25.00;99.90
1546;DHT22;766;51.502;9.752;2022-08-14T07:17:32;24.90;99.90
1546;DHT22;766;51.502;9.752;2022-08-14T07:20:05;24.90;99.90
1546;DHT22;766;51.502;9.752;2022-08-14T07:22:36;24.90;99.90
1546;DHT22;766;51.502;9.752;2022-08-14T07:25:23;24.70;99.90
1546;DHT22;766;51.502;9.752;2022-08-14T07:27:59;25.40;99.90
1546;DHT22;766;51.502;9.752;2022-08-14T07:30:28;26.30;99.90
1546;DHT22;766;51.502;9.752;2022-08-14T07:33:01;26.40;99.90
1546;DHT22;766;51.502;9.752;2022-08-14T07:35:30;26.60;99.90
1546;DHT22;766;51.502;9.752;2022-08-14T07:38:21;26.80;99.90
1546;DHT22;766;51.502;9.752;2022-08-14T07:40:51;27.10;99.90
1546;DHT22;766;51.502;9.752;2022-08-14T07:43:21;27.80;99.90
1546;DHT22;766;51.502;9.752;2022-08-14T07:45:51;28.10;99.90
1546;DHT22;766;51.502;9.752;2022-08-14T07:48:20;26.70;99.90
1546;DHT22;766;51.502;9.752;2022-08-14T07:50:51;26.50;99.90
1546;DHT22;766;51.502;9.752;2022-08-14T07:53:30;27.40;99.90
1546;DHT22;766;51.502;9.752;2022-08-14T07:56:05;28.20;99.90
1546;DHT22;766;51.502;9.752;2022-08-14T07:58:53;28.20;99.90
1546;DHT22;766;51.502;9.752;2022-08-14T08:01:26;28.30;99.90
1546;DHT22;766;51.502;9.752;2022-08-14T08:03:57;29.00;99.90
1546;DHT22;766;51.502;9.752;2022-08-14T08:06:27;28.40;99.90
1546;DHT22;766;51.502;9.752;2022-08-14T08:08:59;26.90;99.90
1546;DHT22;766;51.502;9.752;2022-08-14T08:11:32;26.80;99.90
1546;DHT22;766;51.502;9.752;2022-08-14T08:14:05;27.80;99.90
1546;DHT22;766;51.502;9.752;2022-08-14T08:16:45;28.50;99.90
1546;DHT22;766;51.502;9.752;2022-08-14T08:19:17;28.90;99.90
1546;DHT22;766;51.502;9.752;2022-08-14T08:21:46;29.30;99.90
1546;DHT22;766;51.502;9.752;2022-08-14T08:24:15;29.10;99.90
1546;DHT22;766;51.502;9.752;2022-08-14T08:26:47;29.30;99.90
1546;DHT22;766;51.502;9.752;2022-08-14T08:29:21;28.40;99.90
1546;DHT22;766;51.502;9.752;2022-08-14T08:31:55;28.70;99.90
1546;DHT22;766;51.502;9.752;2022-08-14T08:34:42;28.30;99.90
1546;DHT22;766;51.502;9.752;2022-08-14T08:37:12;28.30;99.90
1546;DHT22;766;51.502;9.752;2022-08-14T08:39:44;28.50;99.90
1546;DHT22;766;51.502;9.752;2022-08-14T08:42:30;28.80;99.90
1546;DHT22;766;51.502;9.752;2022-08-14T08:45:09;28.70;99.90
1546;DHT22;766;51.502;9.752;2022-08-14T08:47:39;28.60;99.90
1546;DHT22;766;51.502;9.752;2022-08-14T08:50:19;28.30;99.90
1546;DHT22;766;51.502;9.752;2022-08-14T08:52:51;28.40;99.90
1546;DHT22;766;51.502;9.752;2022-08-14T08:55:30;28.30;99.90
1546;DHT22;766;51.502;9.752;2022-08-14T08:58:01;28.40;99.90
1546;DHT22;766;51.502;9.752;2022-08-14T09:00:39;27.90;99.90
1546;DHT22;766;51.502;9.752;2022-08-14T09:03:10;28.40;99.90
1546;DHT22;766;51.502;9.752;2022-08-14T09:05:50;28.60;99.90
1546;DHT22;766;51.502;9.752;2022-08-14T09:08:21;29.20;99.90
1546;DHT22;766;51.502;9.752;2022-08-14T09:11:02;29.60;99.90
1546;DHT22;766;51.502;9.752;2022-08-14T09:13:48;29.60;99.90
1546;DHT22;766;51.502;9.752;2022-08-14T09:16:19;29.30;99.90
1546;DHT22;766;51.502;9.752;2022-08-14T09:18:51;28.90;99.90
1546;DHT22;766;51.502;9.752;2022-08-14T09:21:21;29.70;99.90
1546;DHT22;766;51.502;9.752;2022-08-14T09:23:52;29.70;99.90
1546;DHT22;766;51.502;9.752;2022-08-14T09:26:49;30.00;99.90
1546;DHT22;766;51.502;9.752;2022-08-14T09:29:18;29.30;99.90
1546;DHT22;766;51.502;9.752;2022-08-14T09:31:53;29.00;99.90
1546;DHT22;766;51.502;9.752;2022-08-14T09:34:35;28.90;99.90
1546;DHT22;766;51.502;9.752;2022-08-14T09:37:36;29.10;99.90
1546;DHT22;766;51.502;9.752;2022-08-14T09:40:21;29.30;99.90
1546;DHT22;766;51.502;9.752;2022-08-14T09:43:04;29.30;99.90
1546;DHT22;766;51.502;9.752;2022-08-14T09:45:44;29.20;99.90
1546;DHT22;766;51.502;9.752;2022-08-14T09:48:21;29.70;99.90
1546;DHT22;766;51.502;9.752;2022-08-14T09:50:58;30.10;99.90
1546;DHT22;766;51.502;9.752;2022-08-14T09:53:35;30.20;99.90
1546;DHT22;766;51.502;9.752;2022-08-14T09:56:23;30.70;99.90
1546;DHT22;766;51.502;9.752;2022-08-14T09:59:09;29.50;99.90
1546;DHT22;766;51.502;9.752;2022-08-14T10:01:42;29.90;99.90
1546;DHT22;766;51.502;9.752;2022-08-14T10:04:20;29.40;99.90
1546;DHT22;766;51.502;9.752;2022-08-14T10:07:02;29.50;99.90
1546;DHT22;766;51.502;9.752;2022-08-14T10:09:31;29.20;99.90
1546;DHT22;766;51.502;9.752;2022-08-14T10:12:01;29.80;99.90
1546;DHT22;766;51.502;9.752;2022-08-14T10:14:33;30.30;99.90
1546;DHT22;766;51.502;9.752;2022-08-14T10:17:04;30.50;99.90
1546;DHT22;766;51.502;9.752;2022-08-14T10:19:34;30.10;99.90
1546;DHT22;766;51.502;9.752;2022-08-14T10:22:14;30.00;99.90
1546;DHT22;766;51.502;9.752;2022-08-14T10:25:09;30.50;99.90
1546;DHT22;766;51.502;9.752;2022-08-14T10:27:42;30.60;99.90
1546;DHT22;766;51.502;9.752;2022-08-14T10:30:17;30.30;99.90
1546;DHT22;766;51.502;9.752;2022-08-14T10:32:51;30.80;99.90
1546;DHT22;766;51.502;9.752;2022-08-14T10:35:23;30.20;99.90
1546;DHT22;766;51.502;9.752;2022-08-14T10:37:59;30.20;99.90
1546;DHT22;766;51.502;9.752;2022-08-14T10:40:33;30.80;99.90
1546;DHT22;766;51.502;9.752;2022-08-14T10:43:21;31.30;99.90
1546;DHT22;766;51.502;9.752;2022-08-14T10:45:56;31.00;99.90
1546;DHT22;766;51.502;9.752;2022-08-14T10:48:59;30.70;99.90
1546;DHT22;766;51.502;9.752;2022-08-14T10:51:32;30.50;99.90
1546;DHT22;766;51.502;9.752;2022-08-14T10:54:09;30.90;99.90
1546;DHT22;766;51.502;9.752;2022-08-14T10:57:10;32.00;99.90
1546;DHT22;766;51.502;9.752;2022-08-14T10:59:44;32.30;99.90
1546;DHT22;766;51.502;9.752;2022-08-14T11:02:25;32.00;99.90
1546;DHT22;766;51.502;9.752;2022-08-14T11:05:18;32.00;99.90
1546;DHT22;766;51.502;9.752;2022-08-14T11:07:57;31.70;99.90
1546;DHT22;766;51.502;9.752;2022-08-14T11:10:41;30.80;99.90
1546;DHT22;766;51.502;9.752;2022-08-14T11:13:17;31.20;99.90
1546;DHT22;766;51.502;9.752;2022-08-14T11:15:50;31.80;99.90
1546;DHT22;766;51.502;9.752;2022-08-14T11:18:27;32.20;99.90
1546;DHT22;766;51.502;9.752;2022-08-14T11:21:06;31.90;99.90
1546;DHT22;766;51.502;9.752;2022-08-14T11:23:38;32.20;99.90
1546;DHT22;766;51.502;9.752;2022-08-14T11:26:12;32.50;99.90
1546;DHT22;766;51.502;9.752;2022-08-14T11:28:44;32.30;99.90
1546;DHT22;766;51.502;9.752;2022-08-14T11:31:18;32.90;99.90
1546;DHT22;766;51.502;9.752;2022-08-14T11:33:51;31.80;99.90
1546;DHT22;766;51.502;9.752;2022-08-14T11:36:26;31.60;99.90
1546;DHT22;766;51.502;9.752;2022-08-14T11:39:19;30.50;99.90
1546;DHT22;766;51.502;9.752;2022-08-14T11:42:01;31.10;99.90
1546;DHT22;766;51.502;9.752;2022-08-14T11:44:51;32.00;99.90
1546;DHT22;766;51.502;9.752;2022-08-14T11:47:26;32.30;99.90
1546;DHT22;766;51.502;9.752;2022-08-14T11:50:18;33.10;99.90
1546;DHT22;766;51.502;9.752;2022-08-14T11:53:01;33.70;99.90
1546;DHT22;766;51.502;9.752;2022-08-14T11:55:34;32.60;99.90
1546;DHT22;766;51.502;9.752;2022-08-14T11:58:10;31.30;99.90
1546;DHT22;766;51.502;9.752;2022-08-14T12:00:52;31.20;99.90
1546;DHT22;766;51.502;9.752;2022-08-14T12:03:35;31.70;99.90
1546;DHT22;766;51.502;9.752;2022-08-14T12:06:20;31.10;99.90
1546;DHT22;766;51.502;9.752;2022-08-14T12:09:05;32.40;99.90
1546;DHT22;766;51.502;9.752;2022-08-14T12:11:42;32.80;99.90
1546;DHT22;766;51.502;9.752;2022-08-14T12:14:17;32.70;99.90
1546;DHT22;766;51.502;9.752;2022-08-14T12:17:06;32.90;99.90
1546;DHT22;766;51.502;9.752;2022-08-14T12:19:48;32.80;99.90
1546;DHT22;766;51.502;9.752;2022-08-14T12:22:35;32.30;99.90
1546;DHT22;766;51.502;9.752;2022-08-14T12:25:08;32.40;99.90
1546;DHT22;766;51.502;9.752;2022-08-14T12:27:39;32.60;99.90
1546;DHT22;766;51.502;9.752;2022-08-14T12:30:28;31.40;99.90
1546;DHT22;766;51.502;9.752;2022-08-14T12:33:05;31.30;99.90
1546;DHT22;766;51.502;9.752;2022-08-14T12:35:36;31.40;99.90
1546;DHT22;766;51.502;9.752;2022-08-14T12:38:07;31.80;99.90
1546;DHT22;766;51.502;9.752;2022-08-14T12:40:48;31.90;99.90
1546;DHT22;766;51.502;9.752;2022-08-14T12:43:18;31.50;99.90
1546;DHT22;766;51.502;9.752;2022-08-14T12:45:48;31.30;99.90
1546;DHT22;766;51.502;9.752;2022-08-14T12:48:18;31.20;99.90
1546;DHT22;766;51.502;9.752;2022-08-14T12:50:58;30.60;99.90
1546;DHT22;766;51.502;9.752;2022-08-14T12:53:35;30.40;99.90
1546;DHT22;766;51.502;9.752;2022-08-14T12:56:04;29.60;99.90
1546;DHT22;766;51.502;9.752;2022-08-14T12:58:55;29.00;99.90
1546;DHT22;766;51.502;9.752;2022-08-14T13:01:29;29.40;99.90
1546;DHT22;766;51.502;9.752;2022-08-14T13:04:20;29.20;99.90
1546;DHT22;766;51.502;9.752;2022-08-14T13:06:49;29.80;99.90
1546;DHT22;766;51.502;9.752;2022-08-14T13:09:24;30.00;99.90
1546;DHT22;766;51.502;9.752;2022-08-14T13:12:04;30.40;99.90
1546;DHT22;766;51.502;9.752;2022-08-14T13:14:56;30.30;99.90
1546;DHT22;766;51.502;9.752;2022-08-14T13:17:26;29.80;99.90
1546;DHT22;766;51.502;9.752;2022-08-14T13:20:05;29.40;99.90
1546;DHT22;766;51.502;9.752;2022-08-14T13:22:52;29.30;99.90
1546;DHT22;766;51.502;9.752;2022-08-14T13:25:25;29.20;99.90
1546;DHT22;766;51.502;9.752;2022-08-14T13:28:01;29.40;99.90
1546;DHT22;766;51.502;9.752;2022-08-14T13:30:32;29.20;99.90
1546;DHT22;766;51.502;9.752;2022-08-14T13:33:02;28.80;99.90
1546;DHT22;766;51.502;9.752;2022-08-14T13:35:41;28.70;99.90
1546;DHT22;766;51.502;9.752;2022-08-14T13:38:18;28.90;99.90
1546;DHT22;766;51.502;9.752;2022-08-14T13:40:54;28.80;99.90
1546;DHT22;766;51.502;9.752;2022-08-14T13:43:24;29.10;99.90
1546;DHT22;766;51.502;9.752;2022-08-14T13:46:04;29.00;99.90
1546;DHT22;766;51.502;9.752;2022-08-14T13:48:37;29.00;99.90
1546;DHT22;766;51.502;9.752;2022-08-14T13:51:11;29.10;99.90
1546;DHT22;766;51.502;9.752;2022-08-14T13:53:55;29.00;99.90
1546;DHT22;766;51.502;9.752;2022-08-14T13:56:39;29.00;99.90
1546;DHT22;766;51.502;9.752;2022-08-14T13:59:12;28.90;99.90
1546;DHT22;766;51.502;9.752;2022-08-14T14:01:47;28.60;99.90
1546;DHT22;766;51.502;9.752;2022-08-14T14:04:22;28.80;99.90
1546;DHT22;766;51.502;9.752;2022-08-14T14:07:01;28.90;99.90
1546;DHT22;766;51.502;9.752;2022-08-14T14:09:41;28.70;99.90
1546;DHT22;766;51.502;9.752;2022-08-14T14:12:22;28.90;99.90
1546;DHT22;766;51.502;9.752;2022-08-14T14:15:15;28.70;99.90
1546;DHT22;766;51.502;9.752;2022-08-14T14:17:50;28.60;99.90
1546;DHT22;766;51.502;9.752;2022-08-14T14:20:32;28.70;99.90
1546;DHT22;766;51.502;9.752;2022-08-14T14:23:04;28.80;99.90
1546;DHT22;766;51.502;9.752;2022-08-14T14:25:44;28.90;99.90
1546;DHT22;766;51.502;9.752;2022-08-14T14:28:31;28.70;99.90
1546;DHT22;766;51.502;9.752;2022-08-14T14:31:03;28.60;99.90
1546;DHT22;766;51.502;9.752;2022-08-14T14:33:34;28.60;99.90
1546;DHT22;766;51.502;9.752;2022-08-14T14:36:17;28.50;99.90
1546;DHT22;766;51.502;9.752;2022-08-14T14:38:53;28.50;99.90
1546;DHT22;766;51.502;9.752;2022-08-14T14:41:24;28.40;99.90
1546;DHT22;766;51.502;9.752;2022-08-14T14:44:06;28.40;99.90
1546;DHT22;766;51.502;9.752;2022-08-14T14:46:44;28.20;99.90
1546;DHT22;766;51.502;9.752;2022-08-14T14:49:20;28.20;99.90
1546;DHT22;766;51.502;9.752;2022-08-14T14:52:10;28.20;99.90
1546;DHT22;766;51.502;9.752;2022-08-14T14:54:55;28.20;99.90
1546;DHT22;766;51.502;9.752;2022-08-14T14:57:26;28.20;99.90
1546;DHT22;766;51.502;9.752;2022-08-14T15:00:06;28.20;99.90
1546;DHT22;766;51.502;9.752;2022-08-14T15:02:41;28.30;99.90
1546;DHT22;766;51.502;9.752;2022-08-14T15:05:14;28.50;99.90
1546;DHT22;766;51.502;9.752;2022-08-14T15:07:47;28.60;99.90
1546;DHT22;766;51.502;9.752;2022-08-14T15:10:20;28.50;99.90
1546;DHT22;766;51.502;9.752;2022-08-14T15:12:58;28.50;99.90
1546;DHT22;766;51.502;9.752;2022-08-14T15:15:32;28.80;99.90
1546;DHT22;766;51.502;9.752;2022-08-14T15:18:04;28.90;99.90
1546;DHT22;766;51.502;9.752;2022-08-14T15:20:53;28.30;99.90
1546;DHT22;766;51.502;9.752;2022-08-14T15:23:23;28.10;99.90
1546;DHT22;766;51.502;9.752;2022-08-14T15:26:11;27.90;99.90
1546;DHT22;766;51.502;9.752;2022-08-14T15:28:57;27.90;99.90
1546;DHT22;766;51.502;9.752;2022-08-14T15:31:33;28.00;99.90
1546;DHT22;766;51.502;9.752;2022-08-14T15:34:03;28.10;99.90
1546;DHT22;766;51.502;9.752;2022-08-14T15:37:03;28.20;99.90
1546;DHT22;766;51.502;9.752;2022-08-14T15:39:37;28.30;99.90
1546;DHT22;766;51.502;9.752;2022-08-14T15:42:07;28.40;99.90
1546;DHT22;766;51.502;9.752;2022-08-14T15:44:44;28.20;99.90
1546;DHT22;766;51.502;9.752;2022-08-14T15:47:29;27.80;99.90
1546;DHT22;766;51.502;9.752;2022-08-14T15:50:05;27.50;99.90
1546;DHT22;766;51.502;9.752;2022-08-14T15:52:35;27.30;99.90
1546;DHT22;766;51.502;9.752;2022-08-14T15:55:14;27.20;99.90
1546;DHT22;766;51.502;9.752;2022-08-14T15:57:43;27.20;99.90
1546;DHT22;766;51.502;9.752;2022-08-14T16:00:39;27.30;99.90
1546;DHT22;766;51.502;9.752;2022-08-14T16:03:26;27.40;99.90
1546;DHT22;766;51.502;9.752;2022-08-14T16:06:08;27.40;99.90
1546;DHT22;766;51.502;9.752;2022-08-14T16:08:45;27.60;99.90
1546;DHT22;766;51.502;9.752;2022-08-14T16:11:20;27.70;99.90
1546;DHT22;766;51.502;9.752;2022-08-14T16:13:51;27.70;99.90
1546;DHT22;766;51.502;9.752;2022-08-14T16:16:25;27.70;99.90
1546;DHT22;766;51.502;9.752;2022-08-14T16:19:18;27.80;99.90
1546;DHT22;766;51.502;9.752;2022-08-14T16:21:50;27.90;99.90
1546;DHT22;766;51.502;9.752;2022-08-14T16:24:42;28.00;99.90
1546;DHT22;766;51.502;9.752;2022-08-14T16:27:31;28.00;99.90
1546;DHT22;766;51.502;9.752;2022-08-14T16:30:11;28.10;99.90
1546;DHT22;766;51.502;9.752;2022-08-14T16:32:53;28.20;99.90
1546;DHT22;766;51.502;9.752;2022-08-14T16:35:31;28.20;99.90
1546;DHT22;766;51.502;9.752;2022-08-14T16:38:22;28.10;99.90
1546;DHT22;766;51.502;9.752;2022-08-14T16:41:14;28.00;99.90
1546;DHT22;766;51.502;9.752;2022-08-14T16:43:53;28.00;99.90
1546;DHT22;766;51.502;9.752;2022-08-14T16:46:27;28.10;99.90
1546;DHT22;766;51.502;9.752;2022-08-14T16:48:58;28.20;99.90
1546;DHT22;766;51.502;9.752;2022-08-14T16:51:29;28.30;99.90
1546;DHT22;766;51.502;9.752;2022-08-14T16:54:04;28.20;99.90
1546;DHT22;766;51.502;9.752;2022-08-14T16:56:53;28.20;99.90
1546;DHT22;766;51.502;9.752;2022-08-14T16:59:23;28.20;99.90
1546;DHT22;766;51.502;9.752;2022-08-14T17:01:59;28.20;99.90
1546;DHT22;766;51.502;9.752;2022-08-14T17:04:31;28.20;99.90
1546;DHT22;766;51.502;9.752;2022-08-14T17:07:11;28.20;99.90
1546;DHT22;766;51.502;9.752;2022-08-14T17:09:41;28.30;99.90
1546;DHT22;766;51.502;9.752;2022-08-14T17:12:13;28.40;99.90
1546;DHT22;766;51.502;9.752;2022-08-14T17:14:57;28.30;99.90
1546;DHT22;766;51.502;9.752;2022-08-14T17:17:42;28.20;99.90
1546;DHT22;766;51.502;9.752;2022-08-14T17:20:24;28.40;99.90
1546;DHT22;766;51.502;9.752;2022-08-14T17:23:13;28.40;99.90